createdAt,value
2022-11-12T00:01:49.868Z,100098.44
2022-11-12T00:04:36.507Z,100087.91
2022-11-12T00:07:23.194Z,100085.03
2022-11-12T00:10:10.313Z,100091.13
2022-11-12T00:12:56.915Z,100103.09
2022-11-12T00:15:43.914Z,100112.09
2022-11-12T00:18:31.731Z,100106.19
2022-11-12T00:21:18.443Z,100108.88
2022-11-12T00:24:05.436Z,100100.28
2022-11-12T00:26:51.961Z,100099.91
2022-11-12T00:29:38.894Z,100103.66
2022-11-12T00:32:25.347Z,100101.25
2022-11-12T00:35:14.242Z,100089.00
2022-11-12T00:38:01.279Z,100093.91
2022-11-12T00:40:47.949Z,100093.53
2022-11-12T00:43:34.633Z,100107.59
2022-11-12T00:46:21.326Z,100100.84
2022-11-12T00:49:08.142Z,100103.03
2022-11-12T00:51:56.498Z,100101.09
2022-11-12T00:54:43.346Z,100102.31
2022-11-12T00:57:30.088Z,100102.50
2022-11-12T01:00:17.954Z,100100.09
2022-11-12T01:03:04.660Z,100093.81
2022-11-12T01:05:51.404Z,100088.41
2022-11-12T01:08:40.049Z,100089.69
2022-11-12T01:11:27.496Z,100086.88
2022-11-12T01:14:14.291Z,100087.41
2022-11-12T01:17:00.929Z,100095.41
2022-11-12T01:19:47.690Z,100094.09
2022-11-12T01:22:34.834Z,100089.16
2022-11-12T01:25:22.822Z,100081.59
2022-11-12T01:28:09.309Z,100080.34
2022-11-12T01:30:56.116Z,100085.16
2022-11-12T01:33:43.334Z,100089.84
2022-11-12T01:36:32.339Z,100081.47
2022-11-12T01:39:19.154Z,100084.91
2022-11-12T01:42:07.292Z,100093.09
2022-11-12T01:44:54.175Z,100093.09
2022-11-12T01:47:40.983Z,100097.03
2022-11-12T01:50:29.192Z,100098.31
2022-11-12T01:53:15.799Z,100095.41
2022-11-12T01:56:03.503Z,100088.41
2022-11-12T01:58:53.800Z,100088.59
2022-11-12T02:01:40.498Z,100073.94
2022-11-12T02:04:28.037Z,100060.66
2022-11-12T02:07:14.797Z,100064.38
2022-11-12T02:10:03.360Z,100055.38
2022-11-12T02:13:09.276Z,100054.88
2022-11-12T02:15:57.237Z,100059.84
2022-11-12T02:18:43.618Z,100068.63
2022-11-12T02:21:31.794Z,100069.47
2022-11-12T02:24:39.263Z,100070.72
2022-11-12T02:27:26.024Z,100069.63
2022-11-12T02:30:12.749Z,100070.31
2022-11-12T02:32:59.658Z,100071.13
2022-11-12T02:35:46.529Z,100071.72
2022-11-12T02:38:34.698Z,100070.88
2022-11-12T02:41:21.268Z,100058.78
2022-11-12T02:44:07.988Z,100061.59
2022-11-12T02:46:54.710Z,100060.59
2022-11-12T02:49:41.454Z,100059.34
2022-11-12T02:52:28.368Z,100051.97
2022-11-12T02:55:16.673Z,100055.41
2022-11-12T02:58:03.126Z,100063.69
2022-11-12T03:00:50.335Z,100067.22
2022-11-12T03:03:36.969Z,100067.03
2022-11-12T03:06:23.747Z,100071.28
2022-11-12T03:09:12.174Z,100070.19
2022-11-12T03:12:00.235Z,100067.78
2022-11-12T03:14:46.875Z,100069.47
2022-11-12T03:17:35.466Z,100079.97
2022-11-12T03:20:22.106Z,100050.66
2022-11-12T03:23:10.071Z,100060.22
2022-11-12T03:25:56.538Z,100048.59
2022-11-12T03:28:44.458Z,100046.16
2022-11-12T03:31:30.930Z,100032.97
2022-11-12T03:34:17.658Z,100027.81
2022-11-12T03:37:04.330Z,100031.00
2022-11-12T03:39:51.086Z,100031.31
2022-11-12T03:42:37.720Z,100027.56
2022-11-12T03:45:27.110Z,100038.06
2022-11-12T03:48:13.620Z,100036.03
2022-11-12T03:51:00.829Z,100034.84
2022-11-12T03:53:47.493Z,100033.47
2022-11-12T03:56:34.286Z,100035.06
2022-11-12T03:59:21.049Z,100031.53
2022-11-12T04:02:14.289Z,100036.09
2022-11-12T04:05:18.746Z,100032.25
2022-11-12T04:08:24.877Z,100032.97
2022-11-12T04:11:13.481Z,100032.22
2022-11-12T04:14:00.503Z,100030.50
2022-11-12T04:17:04.876Z,100028.47
2022-11-12T04:20:10.435Z,100028.41
2022-11-12T04:22:57.361Z,100024.59
2022-11-12T04:26:02.473Z,100023.22
2022-11-12T04:29:03.116Z,100019.47
2022-11-12T04:31:49.609Z,100019.53
2022-11-12T04:34:36.262Z,100012.03
2022-11-12T04:37:25.111Z,100018.53
2022-11-12T04:40:26.815Z,100026.84
2022-11-12T04:43:32.058Z,100019.84
2022-11-12T04:46:18.751Z,100020.69
2022-11-12T04:49:05.608Z,100021.66
2022-11-12T04:52:07.401Z,100022.44
2022-11-12T04:54:55.489Z,100023.59
2022-11-12T04:57:41.955Z,100035.84
2022-11-12T05:00:28.931Z,100038.28
2022-11-12T05:03:15.290Z,100050.28
2022-11-12T05:06:02.993Z,100043.94
2022-11-12T05:08:49.655Z,100039.84
2022-11-12T05:11:37.623Z,100023.81
2022-11-12T05:14:25.155Z,100029.75
2022-11-12T05:17:11.775Z,100046.66
2022-11-12T05:19:58.506Z,100047.16
2022-11-12T05:22:59.123Z,100046.53
2022-11-12T05:25:51.956Z,100035.28
2022-11-12T05:28:40.093Z,100037.44
2022-11-12T05:31:26.737Z,100032.75
2022-11-12T05:34:16.436Z,100024.19
2022-11-12T05:37:06.089Z,100026.28
2022-11-12T05:39:53.016Z,100026.66
2022-11-12T05:42:39.944Z,100024.28
2022-11-12T05:45:27.969Z,100029.25
2022-11-12T05:48:16.225Z,100027.44
2022-11-12T05:51:12.977Z,100020.63
2022-11-12T05:54:00.542Z,100032.56
2022-11-12T05:56:47.303Z,100027.28
2022-11-12T05:59:33.997Z,100029.69
2022-11-12T06:02:21.880Z,100023.44
2022-11-12T06:05:09.153Z,100032.47
2022-11-12T06:07:55.842Z,100039.31
2022-11-12T06:10:42.655Z,100046.00
2022-11-12T06:13:29.479Z,100046.00
2022-11-12T06:16:16.129Z,100051.72
2022-11-12T06:19:04.890Z,100057.28
2022-11-12T06:21:51.273Z,100058.94
2022-11-12T06:24:38.075Z,100066.59
2022-11-12T06:27:24.934Z,100051.09
2022-11-12T06:30:11.845Z,100053.63
2022-11-12T06:32:58.705Z,100051.56
2022-11-12T06:35:46.621Z,100059.19
2022-11-12T06:38:33.605Z,100058.59
2022-11-12T06:41:20.263Z,100054.00
2022-11-12T06:44:07.606Z,100053.47
2022-11-12T06:46:54.433Z,100057.25
2022-11-12T06:49:41.224Z,100050.97
2022-11-12T06:52:29.174Z,100042.75
2022-11-12T06:55:15.875Z,100037.13
2022-11-12T06:58:02.270Z,100037.59
2022-11-12T07:00:49.059Z,100046.31
2022-11-12T07:03:35.827Z,100051.03
2022-11-12T07:06:22.486Z,100046.84
2022-11-12T07:09:11.802Z,100042.88
2022-11-12T07:11:58.288Z,100029.66
2022-11-12T07:14:45.003Z,100024.28
2022-11-12T07:17:32.019Z,100018.78
2022-11-12T07:20:18.581Z,100016.13
2022-11-12T07:23:05.393Z,100019.50
2022-11-12T07:25:57.869Z,100019.06
2022-11-12T07:28:44.989Z,100016.88
2022-11-12T07:31:31.934Z,100022.38
2022-11-12T07:34:18.715Z,100020.41
2022-11-12T07:37:05.483Z,100021.06
2022-11-12T07:39:52.293Z,100027.88
2022-11-12T07:42:40.348Z,100032.69
2022-11-12T07:45:27.131Z,100025.56
2022-11-12T07:48:13.951Z,100041.78
2022-11-12T07:51:01.801Z,100043.41
2022-11-12T07:53:48.945Z,100032.00
2022-11-12T07:56:35.503Z,100030.69
2022-11-12T07:59:23.616Z,100033.19
2022-11-12T08:02:11.154Z,100018.31
2022-11-12T08:04:57.677Z,100026.22
2022-11-12T08:07:44.481Z,100027.25
2022-11-12T08:10:31.008Z,100027.34
2022-11-12T08:13:17.829Z,100031.59
2022-11-12T08:16:06.247Z,100036.75
2022-11-12T08:18:52.760Z,100049.63
2022-11-12T08:21:39.537Z,100042.50
2022-11-12T08:24:26.257Z,100037.38
2022-11-12T08:27:12.807Z,100033.34
2022-11-12T08:29:59.479Z,100036.94
2022-11-12T08:32:47.656Z,100034.63
2022-11-12T08:35:34.663Z,100031.44
2022-11-12T08:38:21.303Z,100026.41
2022-11-12T08:41:09.088Z,100024.69
2022-11-12T08:43:55.781Z,100027.44
2022-11-12T08:46:42.590Z,100030.91
2022-11-12T08:49:30.758Z,100029.47
2022-11-12T08:52:17.504Z,100025.75
2022-11-12T08:55:04.211Z,100026.72
2022-11-12T08:57:50.619Z,100025.59
2022-11-12T09:00:38.625Z,100015.16
2022-11-12T09:03:25.922Z,100016.38
2022-11-12T09:06:13.947Z,100012.81
2022-11-12T09:09:00.716Z,99999.34
2022-11-12T09:11:47.624Z,100007.63
2022-11-12T09:14:34.300Z,100010.16
2022-11-12T09:17:21.047Z,100012.66
2022-11-12T09:20:08.120Z,100014.69
2022-11-12T09:22:59.068Z,100004.94
2022-11-12T09:25:45.970Z,100001.03
2022-11-12T09:28:33.073Z,100001.25
2022-11-12T09:31:19.939Z,100000.72
2022-11-12T09:34:06.667Z,99997.16
2022-11-12T09:36:53.422Z,99997.81
2022-11-12T09:39:41.682Z,99995.78
2022-11-12T09:42:28.525Z,99989.22
2022-11-12T09:45:29.554Z,99988.22
2022-11-12T09:48:19.331Z,99989.81
2022-11-12T09:51:08.175Z,99983.81
2022-11-12T09:53:56.171Z,99969.09
2022-11-12T09:56:44.423Z,99974.97
2022-11-12T09:59:32.373Z,99974.63
2022-11-12T10:02:25.668Z,99965.75
2022-11-12T10:05:27.305Z,99962.00
2022-11-12T10:08:26.666Z,99966.19
2022-11-12T10:11:29.115Z,99968.22
2022-11-12T10:14:24.331Z,99968.56
2022-11-12T10:17:15.209Z,99961.94
2022-11-12T10:20:06.402Z,99973.63
2022-11-12T10:23:03.728Z,99957.47
2022-11-12T10:25:51.838Z,99965.09
2022-11-12T10:28:41.055Z,99959.97
2022-11-12T10:31:28.895Z,99954.59
2022-11-12T10:34:16.967Z,99956.53
2022-11-12T10:37:05.733Z,99947.88
2022-11-12T10:39:52.654Z,99932.25
2022-11-12T10:42:56.503Z,99947.78
2022-11-12T10:45:43.580Z,99947.03
2022-11-12T10:48:34.143Z,99934.97
2022-11-12T10:51:26.774Z,99931.91
2022-11-12T10:54:29.284Z,99930.03
2022-11-12T10:57:20.346Z,99936.38
2022-11-12T11:00:07.623Z,99930.31
2022-11-12T11:02:55.486Z,99935.69
2022-11-12T11:05:51.246Z,99931.63
2022-11-12T11:08:40.038Z,99926.59
2022-11-12T11:11:28.306Z,99932.91
2022-11-12T11:14:25.310Z,99908.91
2022-11-12T11:17:16.942Z,99918.06
2022-11-12T11:20:03.874Z,99911.13
2022-11-12T11:22:55.298Z,99912.88
2022-11-12T11:25:43.867Z,99903.69
2022-11-12T11:28:34.198Z,99897.91
2022-11-12T11:31:24.030Z,99890.47
2022-11-12T11:34:17.085Z,99896.28
2022-11-12T11:37:09.105Z,99900.22
2022-11-12T11:40:02.522Z,99890.38
2022-11-12T11:42:56.146Z,99894.03
2022-11-12T11:45:54.839Z,99886.94
2022-11-12T11:48:48.435Z,99879.81
2022-11-12T11:51:44.045Z,99880.25
2022-11-12T11:54:41.673Z,99887.63
2022-11-12T11:57:30.787Z,99892.03
2022-11-12T12:00:20.493Z,99878.34
2022-11-12T12:03:16.160Z,99880.66
2022-11-12T12:06:23.290Z,99876.03
2022-11-12T12:09:28.031Z,99876.78
2022-11-12T12:12:21.514Z,99881.56
2022-11-12T12:15:19.729Z,99871.47
2022-11-12T12:18:12.285Z,99868.94
2022-11-12T12:21:02.816Z,99869.38
2022-11-12T12:23:52.562Z,99854.38
2022-11-12T12:26:42.801Z,99855.72
2022-11-12T12:29:32.309Z,99851.81
2022-11-12T12:32:24.441Z,99850.75
2022-11-12T12:35:16.998Z,99855.78
2022-11-12T12:38:08.697Z,99853.22
2022-11-12T12:41:01.813Z,99853.50
2022-11-12T12:43:52.559Z,99855.47
2022-11-12T12:46:41.194Z,99847.16
2022-11-12T12:49:31.577Z,99850.09
2022-11-12T12:52:18.435Z,99842.44
2022-11-12T12:55:05.544Z,99840.97
2022-11-12T12:57:59.617Z,99837.81
2022-11-12T13:00:49.707Z,99832.34
2022-11-12T13:04:03.128Z,99838.03
2022-11-12T13:06:55.987Z,99830.44
2022-11-12T13:09:42.582Z,99823.25
2022-11-12T13:12:44.187Z,99822.03
2022-11-12T13:15:42.607Z,99819.28
2022-11-12T13:18:47.948Z,99830.31
2022-11-12T13:21:34.581Z,99821.25
2022-11-12T13:24:42.519Z,99798.84
2022-11-12T13:27:48.685Z,99817.84
2022-11-12T13:30:49.951Z,99786.00
2022-11-12T13:33:38.337Z,99802.53
2022-11-12T13:36:27.060Z,99799.88
2022-11-12T13:39:16.355Z,99802.66
2022-11-12T13:42:29.346Z,99792.78
2022-11-12T13:45:16.486Z,99790.28
2022-11-12T13:48:06.817Z,99799.22
2022-11-12T13:50:56.089Z,99796.09
2022-11-12T13:53:42.955Z,99804.19
2022-11-12T13:56:30.231Z,99803.34
2022-11-12T13:59:19.054Z,99812.25
2022-11-12T14:02:06.287Z,99809.00
2022-11-12T14:04:53.354Z,99803.06
2022-11-12T14:07:45.550Z,99801.72
2022-11-12T14:10:36.585Z,99799.31
2022-11-12T14:13:38.164Z,99801.41
2022-11-12T14:16:33.845Z,99809.19
2022-11-12T14:19:38.228Z,99804.31
2022-11-12T14:22:24.841Z,99801.47
2022-11-12T14:25:14.662Z,99791.78
2022-11-12T14:28:01.528Z,99800.69
2022-11-12T14:30:48.289Z,99790.56
2022-11-12T14:33:36.306Z,99794.25
2022-11-12T14:36:23.559Z,99789.31
2022-11-12T14:39:11.653Z,99782.97
2022-11-12T14:41:59.250Z,99776.38
2022-11-12T14:44:46.005Z,99777.66
2022-11-12T14:47:32.763Z,99782.69
2022-11-12T14:50:22.951Z,99787.69
2022-11-12T14:53:14.804Z,99779.59
2022-11-12T14:56:04.023Z,99781.44
2022-11-12T14:58:57.091Z,99782.34
2022-11-12T15:05:13.668Z,99778.66
2022-11-12T15:08:02.911Z,99776.69
2022-11-12T15:10:49.397Z,99771.53
2022-11-12T15:13:39.311Z,99767.25
2022-11-12T15:16:28.050Z,99768.44
2022-11-12T15:19:19.592Z,99759.94
2022-11-12T15:22:06.261Z,99769.44
2022-11-12T15:24:54.361Z,99767.16
2022-11-12T15:27:41.858Z,99754.81
2022-11-12T15:30:29.194Z,99761.53
2022-11-12T15:33:18.329Z,99763.38
2022-11-12T15:36:04.948Z,99760.00
2022-11-12T15:38:52.390Z,99754.19
2022-11-12T15:41:41.203Z,99757.28
2022-11-12T15:44:31.346Z,99754.28
2022-11-12T15:47:20.662Z,99759.59
2022-11-12T15:50:15.259Z,99750.13
2022-11-12T15:53:01.654Z,99738.22
2022-11-12T15:55:48.738Z,99740.44
2022-11-12T15:58:37.777Z,99738.44
2022-11-12T16:01:24.247Z,99739.34
2022-11-12T16:04:11.943Z,99730.47
2022-11-12T16:06:58.579Z,99731.63
2022-11-12T16:09:45.346Z,99731.13
2022-11-12T16:12:31.972Z,99720.78
2022-11-12T16:15:23.138Z,99716.94
2022-11-12T16:18:10.837Z,99724.66
2022-11-12T16:20:57.622Z,99732.81
2022-11-12T16:23:44.448Z,99742.97
2022-11-12T16:26:31.829Z,99739.59
2022-11-12T16:29:18.697Z,99742.78
2022-11-12T16:32:07.241Z,99739.44
2022-11-12T16:34:59.861Z,99751.81
2022-11-12T16:37:47.793Z,99745.88
2022-11-12T16:40:34.589Z,99748.81
2022-11-12T16:43:21.530Z,99749.13
2022-11-12T16:46:13.939Z,99744.72
2022-11-12T16:49:03.267Z,99736.50
2022-11-12T16:51:50.483Z,99733.53
2022-11-12T16:54:36.975Z,99728.72
2022-11-12T16:57:23.794Z,99734.81
2022-11-12T17:00:12.120Z,99730.28
2022-11-12T17:02:58.749Z,99722.31
2022-11-12T17:05:51.629Z,99732.00
2022-11-12T17:08:38.328Z,99726.31
2022-11-12T17:11:25.062Z,99731.31
2022-11-12T17:14:11.984Z,99730.78
2022-11-12T17:16:58.557Z,99727.38
2022-11-12T17:19:45.273Z,99723.56
2022-11-12T17:22:33.362Z,99718.78
2022-11-12T17:25:19.925Z,99703.53
2022-11-12T17:28:06.771Z,99706.28
2022-11-12T17:31:02.468Z,99713.63
2022-11-12T17:33:49.828Z,99719.13
2022-11-12T17:36:42.200Z,99707.56
2022-11-12T17:39:31.262Z,99719.56
2022-11-12T17:42:18.027Z,99716.44
2022-11-12T17:45:05.207Z,99711.47
2022-11-12T17:47:51.797Z,99704.50
2022-11-12T17:50:38.606Z,99705.03
2022-11-12T17:53:25.663Z,99707.16
2022-11-12T17:56:14.785Z,99711.41
2022-11-12T17:59:02.091Z,99705.56
2022-11-12T18:01:48.505Z,99704.00
2022-11-12T18:04:35.333Z,99706.91
2022-11-12T18:07:22.064Z,99710.28
2022-11-12T18:10:08.800Z,99701.03
2022-11-12T18:12:57.785Z,99703.66
2022-11-12T18:15:44.750Z,99705.50
2022-11-12T18:18:31.501Z,99700.44
2022-11-12T18:21:18.645Z,99699.91
2022-11-12T18:24:05.436Z,99698.09
2022-11-12T18:26:51.840Z,99694.03
2022-11-12T18:29:41.540Z,99698.19
2022-11-12T18:32:28.440Z,99705.97
2022-11-12T18:35:15.192Z,99697.59
2022-11-12T18:38:02.051Z,99700.44
2022-11-12T18:40:48.971Z,99696.44
2022-11-12T18:43:36.784Z,99697.19
2022-11-12T18:46:24.708Z,99697.72
2022-11-12T18:49:11.546Z,99695.81
2022-11-12T18:51:58.254Z,99696.25
2022-11-12T18:54:45.088Z,99698.44
2022-11-12T18:57:32.577Z,99701.50
2022-11-12T19:00:19.429Z,99708.69
2022-11-12T19:03:07.629Z,99712.56
2022-11-12T19:06:00.522Z,99710.22
2022-11-12T19:08:47.411Z,99700.50
2022-11-12T19:11:34.191Z,99682.47
2022-11-12T19:14:20.872Z,99693.59
2022-11-12T19:17:07.505Z,99693.25
2022-11-12T19:19:55.696Z,99689.50
2022-11-12T19:22:45.660Z,99684.59
2022-11-12T19:25:32.192Z,99682.41
2022-11-12T19:28:19.370Z,99678.81
2022-11-12T19:31:09.719Z,99682.75
2022-11-12T19:33:56.792Z,99692.09
2022-11-12T19:36:44.469Z,99697.47
2022-11-12T19:39:31.026Z,99682.72
2022-11-12T19:42:17.943Z,99687.94
2022-11-12T19:45:05.406Z,99696.06
2022-11-12T19:47:54.397Z,99687.84
2022-11-12T19:50:41.747Z,99704.22
2022-11-12T19:53:32.481Z,99690.16
2022-11-12T19:56:22.501Z,99697.34
2022-11-12T19:59:09.160Z,99690.69
2022-11-12T20:01:55.799Z,99691.59
2022-11-12T20:04:43.073Z,99693.75
2022-11-12T20:07:29.675Z,99671.97
2022-11-12T20:10:23.683Z,99664.28
2022-11-12T20:13:10.208Z,99670.44
2022-11-12T20:15:57.910Z,99664.75
2022-11-12T20:18:49.832Z,99666.09
2022-11-12T20:21:37.733Z,99663.19
2022-11-12T20:24:24.513Z,99662.56
2022-11-12T20:27:14.569Z,99656.03
2022-11-12T20:30:05.618Z,99662.91
2022-11-12T20:32:54.004Z,99654.16
2022-11-12T20:35:40.729Z,99648.81
2022-11-12T20:38:28.714Z,99650.97
2022-11-12T20:41:18.705Z,99651.81
2022-11-12T20:44:06.797Z,99652.81
2022-11-12T20:46:54.242Z,99649.47
2022-11-12T20:49:41.167Z,99654.16
2022-11-12T20:52:27.922Z,99648.03
2022-11-12T20:55:16.748Z,99651.34
2022-11-12T20:58:09.286Z,99651.84
2022-11-12T21:00:58.140Z,99650.56
2022-11-12T21:03:47.884Z,99654.28
2022-11-12T21:06:36.683Z,99653.34
2022-11-12T21:09:24.695Z,99656.06
2022-11-12T21:12:13.775Z,99653.69
2022-11-12T21:15:01.121Z,99647.03
2022-11-12T21:17:52.950Z,99651.94
2022-11-12T21:20:41.984Z,99643.06
2022-11-12T21:23:31.864Z,99625.25
2022-11-12T21:26:19.785Z,99643.13
2022-11-12T21:29:07.158Z,99634.72
2022-11-12T21:31:56.291Z,99624.69
2022-11-12T21:34:44.537Z,99626.72
2022-11-12T21:37:35.902Z,99618.50
2022-11-12T21:40:32.795Z,99619.69
2022-11-12T21:43:21.361Z,99606.34
2022-11-12T21:46:08.397Z,99604.00
2022-11-12T21:48:55.579Z,99605.25
2022-11-12T21:51:45.844Z,99611.59
2022-11-12T21:54:33.225Z,99621.81
2022-11-12T21:57:19.577Z,99621.81
2022-11-12T22:02:38.178Z,99625.34
2022-11-12T22:05:25.142Z,99626.53
2022-11-12T22:08:11.914Z,99626.00
2022-11-12T22:11:02.476Z,99611.28
2022-11-12T22:13:51.188Z,99611.28
2022-11-12T22:16:37.867Z,99611.63
2022-11-12T22:19:25.832Z,99621.41
2022-11-12T22:22:12.511Z,99613.91
2022-11-12T22:24:59.030Z,99607.53
2022-11-12T22:27:46.525Z,99611.50
2022-11-12T22:30:33.095Z,99607.38
2022-11-12T22:33:19.900Z,99608.06
2022-11-12T22:36:08.870Z,99611.03
2022-11-12T22:38:56.025Z,99613.75
2022-11-12T22:41:42.343Z,99621.28
2022-11-12T22:44:29.111Z,99628.63
2022-11-12T22:47:15.840Z,99647.34
2022-11-12T22:50:02.587Z,99684.69
2022-11-12T22:52:50.987Z,99675.44
2022-11-12T22:55:37.538Z,99671.22
2022-11-12T22:58:24.415Z,99656.78
2022-11-12T23:01:17.593Z,99650.94
2022-11-12T23:04:05.845Z,99644.28
2022-11-12T23:06:52.701Z,99626.69
2022-11-12T23:09:40.884Z,99626.69
2022-11-12T23:12:29.620Z,99628.28
2022-11-12T23:15:16.248Z,99630.25
2022-11-12T23:18:03.113Z,99632.28
2022-11-12T23:20:49.949Z,99632.09
2022-11-12T23:23:36.756Z,99630.94
2022-11-12T23:26:25.811Z,99633.94
2022-11-12T23:29:12.987Z,99630.44
2022-11-12T23:31:59.507Z,99631.06
2022-11-12T23:34:46.197Z,99613.63
2022-11-12T23:37:32.988Z,99603.22
2022-11-12T23:40:20.013Z,99594.03
2022-11-12T23:43:08.129Z,99592.31
2022-11-12T23:45:54.902Z,99593.50
2022-11-12T23:48:41.623Z,99577.44
2022-11-12T23:51:28.508Z,99572.69
2022-11-12T23:54:15.150Z,99563.38
2022-11-12T23:57:01.894Z,99567.69
2022-11-12T23:59:49.976Z,99565.72
